sensor_id;sensor_type;location;lat;lon;timestamp;temperature;humidity
20319;DHT22;10317;47.254;11.314;2024-03-17T00:01:02;8.80;99.90
20319;DHT22;10317;47.254;11.314;2024-03-17T00:03:28;8.70;99.90
20319;DHT22;10317;47.254;11.314;2024-03-17T00:06:02;8.70;99.90
20319;DHT22;10317;47.254;11.314;2024-03-17T00:08:27;8.70;99.90
20319;DHT22;10317;47.254;11.314;2024-03-17T00:10:54;8.70;99.90
20319;DHT22;10317;47.254;11.314;2024-03-17T00:13:23;8.70;99.90
20319;DHT22;10317;47.254;11.314;2024-03-17T00:15:49;8.70;99.90
20319;DHT22;10317;47.254;11.314;2024-03-17T00:18:15;8.70;99.90
20319;DHT22;10317;47.254;11.314;2024-03-17T00:20:41;8.70;99.90
20319;DHT22;10317;47.254;11.314;2024-03-17T00:23:07;8.70;99.90
20319;DHT22;10317;47.254;11.314;2024-03-17T00:25:34;8.70;99.90
20319;DHT22;10317;47.254;11.314;2024-03-17T00:28:01;8.70;99.90
20319;DHT22;10317;47.254;11.314;2024-03-17T00:30:27;8.70;99.90
20319;DHT22;10317;47.254;11.314;2024-03-17T00:32:53;8.60;99.90
20319;DHT22;10317;47.254;11.314;2024-03-17T00:35:18;8.60;99.90
20319;DHT22;10317;47.254;11.314;2024-03-17T00:37:48;8.60;99.90
20319;DHT22;10317;47.254;11.314;2024-03-17T00:40:14;8.70;99.90
20319;DHT22;10317;47.254;11.314;2024-03-17T00:42:40;8.70;99.90
20319;DHT22;10317;47.254;11.314;2024-03-17T00:45:10;8.70;99.90
20319;DHT22;10317;47.254;11.314;2024-03-17T00:47:36;8.70;99.90
20319;DHT22;10317;47.254;11.314;2024-03-17T00:50:02;8.60;99.90
20319;DHT22;10317;47.254;11.314;2024-03-17T00:52:30;8.60;99.90
20319;DHT22;10317;47.254;11.314;2024-03-17T00:54:56;8.60;99.90
20319;DHT22;10317;47.254;11.314;2024-03-17T00:57:22;8.50;99.90
20319;DHT22;10317;47.254;11.314;2024-03-17T00:59:47;8.50;99.90
20319;DHT22;10317;47.254;11.314;2024-03-17T01:02:17;8.50;99.90
20319;DHT22;10317;47.254;11.314;2024-03-17T01:04:43;8.40;99.90
20319;DHT22;10317;47.254;11.314;2024-03-17T01:07:10;8.40;99.90
20319;DHT22;10317;47.254;11.314;2024-03-17T01:09:35;8.40;99.90
20319;DHT22;10317;47.254;11.314;2024-03-17T01:12:01;8.40;99.90
20319;DHT22;10317;47.254;11.314;2024-03-17T01:14:28;8.40;99.90
20319;DHT22;10317;47.254;11.314;2024-03-17T01:16:55;8.30;99.90
20319;DHT22;10317;47.254;11.314;2024-03-17T01:19:20;8.30;99.90
20319;DHT22;10317;47.254;11.314;2024-03-17T01:21:46;8.30;99.90
20319;DHT22;10317;47.254;11.314;2024-03-17T01:24:12;8.20;99.90
20319;DHT22;10317;47.254;11.314;2024-03-17T01:26:38;8.20;99.90
20319;DHT22;10317;47.254;11.314;2024-03-17T01:29:04;8.20;99.90
20319;DHT22;10317;47.254;11.314;2024-03-17T01:31:30;8.20;99.90
20319;DHT22;10317;47.254;11.314;2024-03-17T01:33:55;8.20;99.90
20319;DHT22;10317;47.254;11.314;2024-03-17T01:36:21;8.20;99.90
20319;DHT22;10317;47.254;11.314;2024-03-17T01:38:47;8.20;99.90
20319;DHT22;10317;47.254;11.314;2024-03-17T01:41:12;8.10;99.90
20319;DHT22;10317;47.254;11.314;2024-03-17T01:43:39;8.10;99.90
20319;DHT22;10317;47.254;11.314;2024-03-17T01:46:06;8.10;99.90
20319;DHT22;10317;47.254;11.314;2024-03-17T01:48:35;8.10;99.90
20319;DHT22;10317;47.254;11.314;2024-03-17T01:51:01;8.00;99.90
20319;DHT22;10317;47.254;11.314;2024-03-17T01:53:28;8.00;99.90
20319;DHT22;10317;47.254;11.314;2024-03-17T01:55:57;8.00;99.90
20319;DHT22;10317;47.254;11.314;2024-03-17T01:58:30;7.90;99.90
20319;DHT22;10317;47.254;11.314;2024-03-17T02:00:56;7.90;99.90
20319;DHT22;10317;47.254;11.314;2024-03-17T02:03:21;7.80;99.90
20319;DHT22;10317;47.254;11.314;2024-03-17T02:05:47;7.80;99.90
20319;DHT22;10317;47.254;11.314;2024-03-17T02:08:13;7.80;99.90
20319;DHT22;10317;47.254;11.314;2024-03-17T02:10:39;7.70;99.90
20319;DHT22;10317;47.254;11.314;2024-03-17T02:13:05;7.70;99.90
20319;DHT22;10317;47.254;11.314;2024-03-17T02:15:31;7.60;99.90
20319;DHT22;10317;47.254;11.314;2024-03-17T02:17:57;7.60;99.90
20319;DHT22;10317;47.254;11.314;2024-03-17T02:20:23;7.60;99.90
20319;DHT22;10317;47.254;11.314;2024-03-17T02:23:07;7.60;99.90
20319;DHT22;10317;47.254;11.314;2024-03-17T02:25:33;7.60;99.90
20319;DHT22;10317;47.254;11.314;2024-03-17T02:27:59;7.50;99.90
20319;DHT22;10317;47.254;11.314;2024-03-17T02:30:25;7.50;99.90
20319;DHT22;10317;47.254;11.314;2024-03-17T02:32:54;7.50;99.90
20319;DHT22;10317;47.254;11.314;2024-03-17T02:35:25;7.40;99.90
20319;DHT22;10317;47.254;11.314;2024-03-17T02:37:51;7.30;99.90
20319;DHT22;10317;47.254;11.314;2024-03-17T02:40:17;7.30;99.90
20319;DHT22;10317;47.254;11.314;2024-03-17T02:42:44;7.20;99.90
20319;DHT22;10317;47.254;11.314;2024-03-17T02:45:11;7.20;99.90
20319;DHT22;10317;47.254;11.314;2024-03-17T02:47:39;7.10;99.90
20319;DHT22;10317;47.254;11.314;2024-03-17T02:50:07;7.10;99.90
20319;DHT22;10317;47.254;11.314;2024-03-17T02:52:33;7.00;99.90
20319;DHT22;10317;47.254;11.314;2024-03-17T02:54:59;6.90;99.90
20319;DHT22;10317;47.254;11.314;2024-03-17T02:57:25;6.90;99.90
20319;DHT22;10317;47.254;11.314;2024-03-17T02:59:56;6.90;99.90
20319;DHT22;10317;47.254;11.314;2024-03-17T03:02:22;6.80;99.90
20319;DHT22;10317;47.254;11.314;2024-03-17T03:04:48;6.80;99.90
20319;DHT22;10317;47.254;11.314;2024-03-17T03:07:14;6.80;99.90
20319;DHT22;10317;47.254;11.314;2024-03-17T03:09:40;6.70;99.90
20319;DHT22;10317;47.254;11.314;2024-03-17T03:12:06;6.70;99.90
20319;DHT22;10317;47.254;11.314;2024-03-17T03:14:33;6.60;99.90
20319;DHT22;10317;47.254;11.314;2024-03-17T03:16:59;6.60;99.90
20319;DHT22;10317;47.254;11.314;2024-03-17T03:19:26;6.60;99.90
20319;DHT22;10317;47.254;11.314;2024-03-17T03:21:52;6.60;99.90
20319;DHT22;10317;47.254;11.314;2024-03-17T03:24:17;6.60;99.90
20319;DHT22;10317;47.254;11.314;2024-03-17T03:26:43;6.60;99.90
20319;DHT22;10317;47.254;11.314;2024-03-17T03:29:10;6.60;99.90
20319;DHT22;10317;47.254;11.314;2024-03-17T03:31:36;6.50;99.90
20319;DHT22;10317;47.254;11.314;2024-03-17T03:34:04;6.40;99.90
20319;DHT22;10317;47.254;11.314;2024-03-17T03:36:33;6.40;99.90
20319;DHT22;10317;47.254;11.314;2024-03-17T03:38:59;6.30;99.90
20319;DHT22;10317;47.254;11.314;2024-03-17T03:41:25;6.30;99.90
20319;DHT22;10317;47.254;11.314;2024-03-17T03:43:51;6.30;99.90
20319;DHT22;10317;47.254;11.314;2024-03-17T03:46:17;6.30;99.90
20319;DHT22;10317;47.254;11.314;2024-03-17T03:48:43;6.20;99.90
20319;DHT22;10317;47.254;11.314;2024-03-17T03:51:09;6.20;99.90
20319;DHT22;10317;47.254;11.314;2024-03-17T03:53:36;6.10;99.90
20319;DHT22;10317;47.254;11.314;2024-03-17T03:56:06;6.10;99.90
20319;DHT22;10317;47.254;11.314;2024-03-17T03:58:39;6.00;99.90
20319;DHT22;10317;47.254;11.314;2024-03-17T04:01:06;6.00;99.90
20319;DHT22;10317;47.254;11.314;2024-03-17T04:03:36;6.00;99.90
20319;DHT22;10317;47.254;11.314;2024-03-17T04:06:06;6.00;99.90
20319;DHT22;10317;47.254;11.314;2024-03-17T04:08:33;6.00;99.90
20319;DHT22;10317;47.254;11.314;2024-03-17T04:10:59;6.00;99.90
20319;DHT22;10317;47.254;11.314;2024-03-17T04:13:27;5.90;99.90
20319;DHT22;10317;47.254;11.314;2024-03-17T04:15:52;5.90;99.90
20319;DHT22;10317;47.254;11.314;2024-03-17T04:18:23;5.90;99.90
20319;DHT22;10317;47.254;11.314;2024-03-17T04:20:51;5.80;99.90
20319;DHT22;10317;47.254;11.314;2024-03-17T04:23:17;5.80;99.90
20319;DHT22;10317;47.254;11.314;2024-03-17T04:25:42;5.70;99.90
20319;DHT22;10317;47.254;11.314;2024-03-17T04:28:09;5.80;99.90
20319;DHT22;10317;47.254;11.314;2024-03-17T04:30:34;5.70;99.90
20319;DHT22;10317;47.254;11.314;2024-03-17T04:33:00;5.70;99.90
20319;DHT22;10317;47.254;11.314;2024-03-17T04:35:26;5.70;99.90
20319;DHT22;10317;47.254;11.314;2024-03-17T04:37:52;5.60;99.90
20319;DHT22;10317;47.254;11.314;2024-03-17T04:40:17;5.50;99.90
20319;DHT22;10317;47.254;11.314;2024-03-17T04:42:44;5.50;99.90
20319;DHT22;10317;47.254;11.314;2024-03-17T04:45:10;5.50;99.90
20319;DHT22;10317;47.254;11.314;2024-03-17T04:47:36;5.50;99.90
20319;DHT22;10317;47.254;11.314;2024-03-17T04:50:02;5.50;99.90
20319;DHT22;10317;47.254;11.314;2024-03-17T04:52:29;5.50;99.90
20319;DHT22;10317;47.254;11.314;2024-03-17T04:54:55;5.40;99.90
20319;DHT22;10317;47.254;11.314;2024-03-17T04:57:20;5.40;99.90
20319;DHT22;10317;47.254;11.314;2024-03-17T04:59:46;5.30;99.90
20319;DHT22;10317;47.254;11.314;2024-03-17T05:02:12;5.30;99.90
20319;DHT22;10317;47.254;11.314;2024-03-17T05:04:37;5.30;99.90
20319;DHT22;10317;47.254;11.314;2024-03-17T05:07:03;5.30;99.90
20319;DHT22;10317;47.254;11.314;2024-03-17T05:09:29;5.20;99.90
20319;DHT22;10317;47.254;11.314;2024-03-17T05:11:55;5.20;99.90
20319;DHT22;10317;47.254;11.314;2024-03-17T05:14:20;5.20;99.90
20319;DHT22;10317;47.254;11.314;2024-03-17T05:16:49;5.20;99.90
20319;DHT22;10317;47.254;11.314;2024-03-17T05:19:15;5.10;99.90
20319;DHT22;10317;47.254;11.314;2024-03-17T05:21:43;5.10;99.90
20319;DHT22;10317;47.254;11.314;2024-03-17T05:24:10;5.10;99.90
20319;DHT22;10317;47.254;11.314;2024-03-17T05:26:36;5.00;99.90
20319;DHT22;10317;47.254;11.314;2024-03-17T05:29:02;5.00;99.90
20319;DHT22;10317;47.254;11.314;2024-03-17T05:31:28;5.00;99.90
20319;DHT22;10317;47.254;11.314;2024-03-17T05:33:53;5.00;99.90
20319;DHT22;10317;47.254;11.314;2024-03-17T05:36:19;5.10;99.90
20319;DHT22;10317;47.254;11.314;2024-03-17T05:38:47;5.10;99.90
20319;DHT22;10317;47.254;11.314;2024-03-17T05:41:13;5.10;99.90
20319;DHT22;10317;47.254;11.314;2024-03-17T05:43:39;5.10;99.90
20319;DHT22;10317;47.254;11.314;2024-03-17T05:46:10;5.00;99.90
20319;DHT22;10317;47.254;11.314;2024-03-17T05:48:38;5.00;99.90
20319;DHT22;10317;47.254;11.314;2024-03-17T05:51:05;5.10;99.90
20319;DHT22;10317;47.254;11.314;2024-03-17T05:53:31;5.10;99.90
20319;DHT22;10317;47.254;11.314;2024-03-17T05:56:01;5.10;99.90
20319;DHT22;10317;47.254;11.314;2024-03-17T05:58:27;5.10;99.90
20319;DHT22;10317;47.254;11.314;2024-03-17T06:00:52;5.10;99.90
20319;DHT22;10317;47.254;11.314;2024-03-17T06:03:18;5.10;99.90
20319;DHT22;10317;47.254;11.314;2024-03-17T06:05:44;5.20;99.90
20319;DHT22;10317;47.254;11.314;2024-03-17T06:08:11;5.10;99.90
20319;DHT22;10317;47.254;11.314;2024-03-17T06:10:42;5.20;99.90
20319;DHT22;10317;47.254;11.314;2024-03-17T06:13:08;5.30;99.90
20319;DHT22;10317;47.254;11.314;2024-03-17T06:15:38;5.40;99.90
20319;DHT22;10317;47.254;11.314;2024-03-17T06:18:04;5.50;99.90
20319;DHT22;10317;47.254;11.314;2024-03-17T06:20:30;5.60;99.90
20319;DHT22;10317;47.254;11.314;2024-03-17T06:22:56;5.70;99.90
20319;DHT22;10317;47.254;11.314;2024-03-17T06:25:22;5.80;99.90
20319;DHT22;10317;47.254;11.314;2024-03-17T06:27:51;5.90;99.90
20319;DHT22;10317;47.254;11.314;2024-03-17T06:30:17;6.10;99.90
20319;DHT22;10317;47.254;11.314;2024-03-17T06:32:44;6.30;99.90
20319;DHT22;10317;47.254;11.314;2024-03-17T06:35:13;6.50;99.90
20319;DHT22;10317;47.254;11.314;2024-03-17T06:37:46;6.70;99.90
20319;DHT22;10317;47.254;11.314;2024-03-17T06:40:13;6.80;99.90
20319;DHT22;10317;47.254;11.314;2024-03-17T06:42:39;7.00;99.90
20319;DHT22;10317;47.254;11.314;2024-03-17T06:45:06;7.10;99.90
20319;DHT22;10317;47.254;11.314;2024-03-17T06:47:34;7.30;99.90
20319;DHT22;10317;47.254;11.314;2024-03-17T06:50:01;7.50;99.90
20319;DHT22;10317;47.254;11.314;2024-03-17T06:52:27;7.80;99.90
20319;DHT22;10317;47.254;11.314;2024-03-17T06:54:52;8.20;99.90
20319;DHT22;10317;47.254;11.314;2024-03-17T06:57:18;8.60;99.90
20319;DHT22;10317;47.254;11.314;2024-03-17T06:59:44;8.90;99.90
20319;DHT22;10317;47.254;11.314;2024-03-17T07:02:11;9.40;99.90
20319;DHT22;10317;47.254;11.314;2024-03-17T07:04:41;10.00;99.90
20319;DHT22;10317;47.254;11.314;2024-03-17T07:07:06;10.80;99.90
20319;DHT22;10317;47.254;11.314;2024-03-17T07:09:32;11.70;99.30
20319;DHT22;10317;47.254;11.314;2024-03-17T07:11:58;12.20;96.80
20319;DHT22;10317;47.254;11.314;2024-03-17T07:14:23;12.40;96.80
20319;DHT22;10317;47.254;11.314;2024-03-17T07:16:51;12.60;95.60
20319;DHT22;10317;47.254;11.314;2024-03-17T07:19:17;12.80;95.40
20319;DHT22;10317;47.254;11.314;2024-03-17T07:21:43;13.00;93.90
20319;DHT22;10317;47.254;11.314;2024-03-17T07:24:08;13.20;93.40
20319;DHT22;10317;47.254;11.314;2024-03-17T07:26:34;13.60;92.50
20319;DHT22;10317;47.254;11.314;2024-03-17T07:29:00;14.40;92.30
20319;DHT22;10317;47.254;11.314;2024-03-17T07:31:25;15.00;88.00
20319;DHT22;10317;47.254;11.314;2024-03-17T07:33:51;15.60;88.70
20319;DHT22;10317;47.254;11.314;2024-03-17T07:36:17;16.10;83.90
20319;DHT22;10317;47.254;11.314;2024-03-17T07:38:43;16.20;85.00
20319;DHT22;10317;47.254;11.314;2024-03-17T07:41:09;15.90;83.20
20319;DHT22;10317;47.254;11.314;2024-03-17T07:43:36;15.60;84.10
20319;DHT22;10317;47.254;11.314;2024-03-17T07:48:33;15.00;82.80
20319;DHT22;10317;47.254;11.314;2024-03-17T07:51:00;15.40;85.00
20319;DHT22;10317;47.254;11.314;2024-03-17T07:53:27;17.10;81.90
20319;DHT22;10317;47.254;11.314;2024-03-17T07:55:57;19.80;75.50
20319;DHT22;10317;47.254;11.314;2024-03-17T07:58:25;22.60;69.20
20319;DHT22;10317;47.254;11.314;2024-03-17T08:00:52;25.30;62.30
20319;DHT22;10317;47.254;11.314;2024-03-17T08:03:18;27.90;58.10
20319;DHT22;10317;47.254;11.314;2024-03-17T08:05:51;30.00;51.50
20319;DHT22;10317;47.254;11.314;2024-03-17T08:08:18;31.50;48.40
20319;DHT22;10317;47.254;11.314;2024-03-17T08:10:44;32.70;45.20
20319;DHT22;10317;47.254;11.314;2024-03-17T08:13:10;33.50;42.90
20319;DHT22;10317;47.254;11.314;2024-03-17T08:15:35;34.50;40.90
20319;DHT22;10317;47.254;11.314;2024-03-17T08:18:02;35.20;39.10
20319;DHT22;10317;47.254;11.314;2024-03-17T08:20:29;35.60;35.40
20319;DHT22;10317;47.254;11.314;2024-03-17T08:22:55;35.60;36.30
20319;DHT22;10317;47.254;11.314;2024-03-17T08:25:21;35.90;35.10
20319;DHT22;10317;47.254;11.314;2024-03-17T08:27:47;36.20;34.70
20319;DHT22;10317;47.254;11.314;2024-03-17T08:30:12;35.80;33.80
20319;DHT22;10317;47.254;11.314;2024-03-17T08:32:41;34.20;33.30
20319;DHT22;10317;47.254;11.314;2024-03-17T08:35:07;33.20;34.70
20319;DHT22;10317;47.254;11.314;2024-03-17T08:37:36;33.80;34.50
20319;DHT22;10317;47.254;11.314;2024-03-17T08:40:01;34.90;33.80
20319;DHT22;10317;47.254;11.314;2024-03-17T08:42:27;35.80;33.30
20319;DHT22;10317;47.254;11.314;2024-03-17T08:44:53;36.60;32.70
20319;DHT22;10317;47.254;11.314;2024-03-17T08:47:19;36.70;31.70
20319;DHT22;10317;47.254;11.314;2024-03-17T08:49:45;37.30;31.60
20319;DHT22;10317;47.254;11.314;2024-03-17T08:52:11;37.20;30.60
20319;DHT22;10317;47.254;11.314;2024-03-17T08:54:37;36.80;31.00
20319;DHT22;10317;47.254;11.314;2024-03-17T08:57:02;35.90;30.50
20319;DHT22;10317;47.254;11.314;2024-03-17T08:59:28;35.50;30.10
20319;DHT22;10317;47.254;11.314;2024-03-17T09:01:54;35.50;31.20
20319;DHT22;10317;47.254;11.314;2024-03-17T09:04:19;35.30;31.30
20319;DHT22;10317;47.254;11.314;2024-03-17T09:06:45;35.50;31.20
20319;DHT22;10317;47.254;11.314;2024-03-17T09:09:11;35.50;31.10
20319;DHT22;10317;47.254;11.314;2024-03-17T09:11:39;35.50;30.60
20319;DHT22;10317;47.254;11.314;2024-03-17T09:14:05;34.90;31.00
20319;DHT22;10317;47.254;11.314;2024-03-17T09:16:30;34.90;30.90
20319;DHT22;10317;47.254;11.314;2024-03-17T09:18:57;34.80;31.00
20319;DHT22;10317;47.254;11.314;2024-03-17T09:21:23;34.80;30.80
20319;DHT22;10317;47.254;11.314;2024-03-17T09:23:49;35.20;30.30
20319;DHT22;10317;47.254;11.314;2024-03-17T09:26:15;34.70;30.00
20319;DHT22;10317;47.254;11.314;2024-03-17T09:28:42;34.00;30.80
20319;DHT22;10317;47.254;11.314;2024-03-17T09:31:10;32.90;32.10
20319;DHT22;10317;47.254;11.314;2024-03-17T09:33:37;32.80;32.40
20319;DHT22;10317;47.254;11.314;2024-03-17T09:36:05;33.10;32.30
20319;DHT22;10317;47.254;11.314;2024-03-17T09:38:32;33.40;32.50
20319;DHT22;10317;47.254;11.314;2024-03-17T09:40:58;33.60;31.80
20319;DHT22;10317;47.254;11.314;2024-03-17T09:43:30;33.70;32.50
20319;DHT22;10317;47.254;11.314;2024-03-17T09:45:57;34.70;31.60
20319;DHT22;10317;47.254;11.314;2024-03-17T09:48:24;35.80;31.40
20319;DHT22;10317;47.254;11.314;2024-03-17T09:50:50;35.70;31.00
20319;DHT22;10317;47.254;11.314;2024-03-17T09:53:30;35.30;30.60
20319;DHT22;10317;47.254;11.314;2024-03-17T09:56:03;35.40;31.00
20319;DHT22;10317;47.254;11.314;2024-03-17T09:58:29;35.10;30.80
20319;DHT22;10317;47.254;11.314;2024-03-17T10:00:55;34.00;31.30
20319;DHT22;10317;47.254;11.314;2024-03-17T10:03:46;32.60;31.20
20319;DHT22;10317;47.254;11.314;2024-03-17T10:06:15;32.50;33.40
20319;DHT22;10317;47.254;11.314;2024-03-17T10:08:42;33.80;33.10
20319;DHT22;10317;47.254;11.314;2024-03-17T10:11:08;35.50;32.00
20319;DHT22;10317;47.254;11.314;2024-03-17T10:13:34;36.40;31.00
20319;DHT22;10317;47.254;11.314;2024-03-17T10:15:59;35.90;30.30
20319;DHT22;10317;47.254;11.314;2024-03-17T10:18:25;36.40;30.70
20319;DHT22;10317;47.254;11.314;2024-03-17T10:20:51;37.00;30.00
20319;DHT22;10317;47.254;11.314;2024-03-17T10:23:20;37.90;30.50
20319;DHT22;10317;47.254;11.314;2024-03-17T10:25:46;37.80;29.80
20319;DHT22;10317;47.254;11.314;2024-03-17T10:28:13;36.90;29.70
20319;DHT22;10317;47.254;11.314;2024-03-17T10:30:39;36.20;29.90
20319;DHT22;10317;47.254;11.314;2024-03-17T10:33:06;35.80;30.20
20319;DHT22;10317;47.254;11.314;2024-03-17T10:35:35;34.90;30.10
20319;DHT22;10317;47.254;11.314;2024-03-17T10:38:06;33.70;31.20
20319;DHT22;10317;47.254;11.314;2024-03-17T10:40:33;32.50;31.30
20319;DHT22;10317;47.254;11.314;2024-03-17T10:43:01;31.20;32.40
20319;DHT22;10317;47.254;11.314;2024-03-17T10:45:28;30.60;32.80
20319;DHT22;10317;47.254;11.314;2024-03-17T10:48:01;30.10;33.80
20319;DHT22;10317;47.254;11.314;2024-03-17T10:50:30;29.70;33.00
20319;DHT22;10317;47.254;11.314;2024-03-17T10:53:02;28.70;34.10
20319;DHT22;10317;47.254;11.314;2024-03-17T10:55:31;28.20;34.70
20319;DHT22;10317;47.254;11.314;2024-03-17T10:57:59;28.10;35.60
20319;DHT22;10317;47.254;11.314;2024-03-17T11:00:27;28.10;35.90
20319;DHT22;10317;47.254;11.314;2024-03-17T11:02:55;28.30;35.70
20319;DHT22;10317;47.254;11.314;2024-03-17T11:05:23;28.10;34.90
20319;DHT22;10317;47.254;11.314;2024-03-17T11:07:52;28.20;36.60
20319;DHT22;10317;47.254;11.314;2024-03-17T11:10:24;28.50;35.10
20319;DHT22;10317;47.254;11.314;2024-03-17T11:12:51;28.20;35.10
20319;DHT22;10317;47.254;11.314;2024-03-17T11:17:50;27.70;35.70
20319;DHT22;10317;47.254;11.314;2024-03-17T11:20:24;27.80;35.00
20319;DHT22;10317;47.254;11.314;2024-03-17T11:22:52;27.20;35.60
20319;DHT22;10317;47.254;11.314;2024-03-17T11:27:59;26.50;35.00
20319;DHT22;10317;47.254;11.314;2024-03-17T11:38:53;25.30;34.40
20319;DHT22;10317;47.254;11.314;2024-03-17T11:46:44;24.10;35.30
20319;DHT22;10317;47.254;11.314;2024-03-17T11:49:38;23.80;35.70
20319;DHT22;10317;47.254;11.314;2024-03-17T11:52:11;23.50;37.40
20319;DHT22;10317;47.254;11.314;2024-03-17T11:54:42;23.30;37.80
20319;DHT22;10317;47.254;11.314;2024-03-17T11:57:10;23.20;37.10
20319;DHT22;10317;47.254;11.314;2024-03-17T11:59:37;22.90;37.00
20319;DHT22;10317;47.254;11.314;2024-03-17T12:04:41;22.10;39.20
20319;DHT22;10317;47.254;11.314;2024-03-17T12:07:15;22.00;38.70
20319;DHT22;10317;47.254;11.314;2024-03-17T12:09:42;21.90;39.50
20319;DHT22;10317;47.254;11.314;2024-03-17T12:12:19;21.60;38.90
20319;DHT22;10317;47.254;11.314;2024-03-17T12:14:45;21.40;39.10
20319;DHT22;10317;47.254;11.314;2024-03-17T12:17:12;21.20;39.70
20319;DHT22;10317;47.254;11.314;2024-03-17T12:19:40;21.10;39.40
20319;DHT22;10317;47.254;11.314;2024-03-17T12:22:06;21.00;39.10
20319;DHT22;10317;47.254;11.314;2024-03-17T12:24:32;21.10;39.60
20319;DHT22;10317;47.254;11.314;2024-03-17T12:26:59;21.20;39.20
20319;DHT22;10317;47.254;11.314;2024-03-17T12:29:33;21.30;39.10
20319;DHT22;10317;47.254;11.314;2024-03-17T12:32:03;21.40;38.90
20319;DHT22;10317;47.254;11.314;2024-03-17T12:34:30;21.50;39.20
20319;DHT22;10317;47.254;11.314;2024-03-17T12:36:58;21.60;38.80
20319;DHT22;10317;47.254;11.314;2024-03-17T12:39:27;21.70;37.90
20319;DHT22;10317;47.254;11.314;2024-03-17T12:44:37;22.00;38.40
20319;DHT22;10317;47.254;11.314;2024-03-17T12:47:05;22.10;39.00
20319;DHT22;10317;47.254;11.314;2024-03-17T12:49:32;22.10;38.40
20319;DHT22;10317;47.254;11.314;2024-03-17T12:52:00;22.10;38.30
20319;DHT22;10317;47.254;11.314;2024-03-17T12:54:27;22.00;38.10
20319;DHT22;10317;47.254;11.314;2024-03-17T12:57:04;21.90;38.80
20319;DHT22;10317;47.254;11.314;2024-03-17T12:59:48;21.90;37.70
20319;DHT22;10317;47.254;11.314;2024-03-17T13:02:33;21.80;37.80
20319;DHT22;10317;47.254;11.314;2024-03-17T13:05:15;21.90;37.90
20319;DHT22;10317;47.254;11.314;2024-03-17T13:07:42;21.80;37.60
20319;DHT22;10317;47.254;11.314;2024-03-17T13:10:08;21.60;37.10
20319;DHT22;10317;47.254;11.314;2024-03-17T13:12:36;21.50;38.10
20319;DHT22;10317;47.254;11.314;2024-03-17T13:15:01;21.60;38.50
20319;DHT22;10317;47.254;11.314;2024-03-17T13:17:27;21.50;38.10
20319;DHT22;10317;47.254;11.314;2024-03-17T13:19:59;21.40;38.40
20319;DHT22;10317;47.254;11.314;2024-03-17T13:22:25;21.50;39.00
20319;DHT22;10317;47.254;11.314;2024-03-17T13:24:51;21.50;39.10
20319;DHT22;10317;47.254;11.314;2024-03-17T13:27:17;21.60;39.20
20319;DHT22;10317;47.254;11.314;2024-03-17T13:29:46;21.60;38.80
20319;DHT22;10317;47.254;11.314;2024-03-17T13:32:12;21.60;38.30
20319;DHT22;10317;47.254;11.314;2024-03-17T13:34:38;21.40;39.20
20319;DHT22;10317;47.254;11.314;2024-03-17T13:37:04;21.30;40.50
20319;DHT22;10317;47.254;11.314;2024-03-17T13:39:33;21.20;39.50
20319;DHT22;10317;47.254;11.314;2024-03-17T13:41:59;21.00;39.50
20319;DHT22;10317;47.254;11.314;2024-03-17T13:44:29;21.00;40.10
20319;DHT22;10317;47.254;11.314;2024-03-17T13:46:55;20.90;38.40
20319;DHT22;10317;47.254;11.314;2024-03-17T13:49:21;20.90;38.30
20319;DHT22;10317;47.254;11.314;2024-03-17T13:51:46;21.00;38.20
20319;DHT22;10317;47.254;11.314;2024-03-17T13:54:12;21.00;39.10
20319;DHT22;10317;47.254;11.314;2024-03-17T13:56:37;20.90;39.00
20319;DHT22;10317;47.254;11.314;2024-03-17T13:59:03;21.00;39.40
20319;DHT22;10317;47.254;11.314;2024-03-17T14:01:29;21.10;39.20
20319;DHT22;10317;47.254;11.314;2024-03-17T14:03:55;21.10;39.60
20319;DHT22;10317;47.254;11.314;2024-03-17T14:06:21;21.20;39.50
20319;DHT22;10317;47.254;11.314;2024-03-17T14:08:46;21.20;39.00
20319;DHT22;10317;47.254;11.314;2024-03-17T14:11:12;21.00;39.50
20319;DHT22;10317;47.254;11.314;2024-03-17T14:13:38;20.90;39.10
20319;DHT22;10317;47.254;11.314;2024-03-17T14:16:04;20.90;39.70
20319;DHT22;10317;47.254;11.314;2024-03-17T14:18:31;20.80;40.10
20319;DHT22;10317;47.254;11.314;2024-03-17T14:20:58;20.70;40.20
20319;DHT22;10317;47.254;11.314;2024-03-17T14:23:24;20.60;39.80
20319;DHT22;10317;47.254;11.314;2024-03-17T14:25:50;20.40;40.20
20319;DHT22;10317;47.254;11.314;2024-03-17T14:28:16;20.40;40.50
20319;DHT22;10317;47.254;11.314;2024-03-17T14:30:42;20.30;41.40
20319;DHT22;10317;47.254;11.314;2024-03-17T14:33:07;20.20;41.30
20319;DHT22;10317;47.254;11.314;2024-03-17T14:35:33;20.10;41.70
20319;DHT22;10317;47.254;11.314;2024-03-17T14:37:59;20.00;41.60
20319;DHT22;10317;47.254;11.314;2024-03-17T14:40:26;19.90;41.90
20319;DHT22;10317;47.254;11.314;2024-03-17T14:42:54;19.70;42.20
20319;DHT22;10317;47.254;11.314;2024-03-17T14:45:24;19.60;42.30
20319;DHT22;10317;47.254;11.314;2024-03-17T14:47:50;19.50;42.60
20319;DHT22;10317;47.254;11.314;2024-03-17T14:50:17;19.40;42.30
20319;DHT22;10317;47.254;11.314;2024-03-17T14:52:44;19.30;42.50
20319;DHT22;10317;47.254;11.314;2024-03-17T14:55:10;19.20;41.70
20319;DHT22;10317;47.254;11.314;2024-03-17T14:57:37;19.10;42.10
20319;DHT22;10317;47.254;11.314;2024-03-17T15:00:07;18.90;42.60
20319;DHT22;10317;47.254;11.314;2024-03-17T15:02:40;18.90;43.70
20319;DHT22;10317;47.254;11.314;2024-03-17T15:05:07;18.80;42.90
20319;DHT22;10317;47.254;11.314;2024-03-17T15:07:33;18.70;42.90
20319;DHT22;10317;47.254;11.314;2024-03-17T15:09:59;18.60;44.40
20319;DHT22;10317;47.254;11.314;2024-03-17T15:12:24;18.50;44.20
20319;DHT22;10317;47.254;11.314;2024-03-17T15:14:50;18.40;44.50
20319;DHT22;10317;47.254;11.314;2024-03-17T15:17:18;18.40;45.60
20319;DHT22;10317;47.254;11.314;2024-03-17T15:19:46;18.40;45.40
20319;DHT22;10317;47.254;11.314;2024-03-17T15:22:13;18.30;46.20
20319;DHT22;10317;47.254;11.314;2024-03-17T15:24:39;18.30;46.00
20319;DHT22;10317;47.254;11.314;2024-03-17T15:27:04;18.30;47.10
20319;DHT22;10317;47.254;11.314;2024-03-17T15:29:31;18.30;46.60
20319;DHT22;10317;47.254;11.314;2024-03-17T15:31:56;18.20;46.70
20319;DHT22;10317;47.254;11.314;2024-03-17T15:34:23;18.20;46.50
20319;DHT22;10317;47.254;11.314;2024-03-17T15:36:48;18.10;46.80
20319;DHT22;10317;47.254;11.314;2024-03-17T15:39:15;18.00;47.40
20319;DHT22;10317;47.254;11.314;2024-03-17T15:41:41;17.90;46.70
20319;DHT22;10317;47.254;11.314;2024-03-17T15:44:07;17.80;46.80
20319;DHT22;10317;47.254;11.314;2024-03-17T15:46:33;17.70;47.00
20319;DHT22;10317;47.254;11.314;2024-03-17T15:48:58;17.70;48.00